Time;durP1;ratioP1;P1;durP2;ratioP2;P2;SDS_P1;SDS_P2;PMS_P1;PMS_P2;Temp;Humidity;BMP_temperature;BMP_pressure;BME280_temperature;BME280_humidity;BME280_pressure;Samples;Min_cycle;Max_cycle;Signal;HPM_P1;HPM_P2
2023/09/19 00:00:21;;;;;;;0.77;0.50;;;;;;;18.90;71.32;98306.72;5073886;28;41425;-80
2023/09/19 00:02:53;;;;;;;1.43;0.50;;;;;;;18.98;71.00;98330.91;5090612;28;40367;-81
2023/09/19 00:05:23;;;;;;;0.40;0.40;;;;;;;18.96;71.20;98332.91;5073636;28;42282;-80
2023/09/19 00:07:54;;;;;;;0.40;0.37;;;;;;;18.93;70.98;98335.91;5090216;28;44287;-80
2023/09/19 00:10:24;;;;;;;0.70;0.63;;;;;;;18.90;71.04;98330.88;5073881;28;41250;-80
2023/09/19 00:12:55;;;;;;;0.63;0.63;;;;;;;18.85;71.12;98330.50;5073966;28;40801;-80
2023/09/19 00:15:23;;;;;;;1.33;0.50;;;;;;;18.84;71.44;98322.63;5057699;28;42055;-80
2023/09/19 00:17:52;;;;;;;0.57;0.47;;;;;;;18.83;71.89;98326.31;5074263;28;41823;-79
2023/09/19 00:20:22;;;;;;;1.03;0.60;;;;;;;18.81;72.27;98317.56;5091374;28;41463;-80
2023/09/19 00:22:51;;;;;;;1.27;0.70;;;;;;;18.79;72.29;98331.13;5091547;28;40232;-80
2023/09/19 00:25:20;;;;;;;0.50;0.50;;;;;;;18.79;72.68;98331.13;5091509;28;41761;-80
2023/09/19 00:27:49;;;;;;;0.73;0.60;;;;;;;18.75;72.56;98332.47;5092492;28;43851;-80
2023/09/19 00:30:23;;;;;;;0.40;0.40;;;;;;;18.78;72.53;98334.84;5074445;28;41178;-80
2023/09/19 00:32:54;;;;;;;0.50;0.50;;;;;;;18.77;72.55;98332.31;5074391;28;38888;-80
2023/09/19 00:35:23;;;;;;;0.60;0.50;;;;;;;18.79;72.18;98341.88;5074516;28;40784;-80
2023/09/19 00:37:51;;;;;;;0.90;0.67;;;;;;;18.67;72.31;98321.69;5091006;28;42644;-80
2023/09/19 00:40:21;;;;;;;0.40;0.40;;;;;;;18.72;72.63;98323.91;5073891;28;41375;-80
2023/09/19 00:42:50;;;;;;;0.80;0.50;;;;;;;18.76;72.62;98328.78;5074036;28;39916;-80
2023/09/19 00:45:20;;;;;;;1.40;0.60;;;;;;;18.81;72.58;98328.28;5074256;28;40556;-80
2023/09/19 00:47:50;;;;;;;0.87;0.53;;;;;;;18.91;72.40;98339.78;5074329;28;41683;-81
2023/09/19 00:50:19;;;;;;;0.50;0.50;;;;;;;18.94;72.04;98344.78;5089133;28;42857;-80
2023/09/19 00:52:49;;;;;;;0.60;0.57;;;;;;;18.99;72.39;98347.84;5089778;28;38870;-80
2023/09/19 00:55:19;;;;;;;0.60;0.60;;;;;;;18.93;72.12;98338.59;5073320;28;41731;-80
2023/09/19 00:57:49;;;;;;;0.90;0.57;;;;;;;18.98;72.44;98346.16;5073305;28;42861;-81
2023/09/19 01:00:19;;;;;;;0.80;0.60;;;;;;;18.90;72.16;98336.25;5093492;28;42183;-81
2023/09/19 01:02:48;;;;;;;0.50;0.50;;;;;;;18.91;72.72;98345.97;5093437;28;40123;-80
2023/09/19 01:05:16;;;;;;;1.03;0.60;;;;;;;18.85;72.52;98351.97;5076733;28;40849;-80
2023/09/19 01:07:45;;;;;;;0.50;0.50;;;;;;;18.85;72.71;98356.50;5092623;28;41806;-81
2023/09/19 01:10:15;;;;;;;0.60;0.50;;;;;;;18.81;72.71;98355.97;5093452;28;42233;-80
2023/09/19 01:12:54;;;;;;;0.77;0.50;;;;;;;18.80;72.83;98354.28;5077019;28;39851;-80
2023/09/19 01:15:40;;;;;;;1.30;0.50;;;;;;;18.78;72.68;98359.00;5091310;28;41757;-80
2023/09/19 01:18:18;;;;;;;0.60;0.60;;;;;;;18.76;73.08;98369.03;5077005;28;42217;-80
2023/09/19 01:20:57;;;;;;;1.63;0.60;;;;;;;18.72;73.48;98361.44;5077008;28;41682;-79
2023/09/19 01:23:35;;;;;;;0.93;0.83;;;;;;;18.69;73.67;98364.44;5077447;28;38927;-80
2023/09/19 01:26:12;;;;;;;0.60;0.60;;;;;;;18.67;74.02;98362.75;5091812;28;42745;-80
2023/09/19 01:29:09;;;;;;;0.60;0.50;;;;;;;18.53;73.68;98352.63;5094327;28;41953;-80
2023/09/19 01:31:41;;;;;;;0.77;0.57;;;;;;;18.59;74.00;98368.09;5076584;28;41880;-80
2023/09/19 01:34:08;;;;;;;0.60;0.60;;;;;;;18.56;75.02;98367.53;5090949;28;41884;-80
2023/09/19 01:36:38;;;;;;;1.17;0.60;;;;;;;18.49;75.02;98363.81;5093627;28;41713;-80
2023/09/19 01:39:12;;;;;;;1.20;0.83;;;;;;;18.53;74.82;98375.91;5075892;28;41757;-80
2023/09/19 01:42:00;;;;;;;0.87;0.77;;;;;;;18.52;75.43;98371.53;5074589;28;43231;-80
2023/09/19 01:44:38;;;;;;;1.00;0.70;;;;;;;18.49;75.23;98371.84;5073082;28;41177;-79
2023/09/19 01:47:27;;;;;;;1.20;0.70;;;;;;;18.47;75.34;98371.16;5075463;28;40847;-80
2023/09/19 01:50:03;;;;;;;1.77;0.70;;;;;;;18.46;76.12;98364.09;5075592;28;41636;-80
2023/09/19 01:52:37;;;;;;;1.17;0.57;;;;;;;18.36;75.59;98349.97;5075429;28;41546;-80
2023/09/19 01:55:10;;;;;;;1.20;0.70;;;;;;;18.45;75.76;98370.47;5076290;28;39359;-80
2023/09/19 01:57:43;;;;;;;0.63;0.50;;;;;;;18.43;75.61;98372.47;5075189;28;43088;-80
2023/09/19 02:00:14;;;;;;;1.63;0.60;;;;;;;18.41;75.68;98369.13;5075377;28;43878;-81
2023/09/19 02:02:47;;;;;;;0.93;0.70;;;;;;;18.39;76.17;98371.97;5075524;28;42368;-80
2023/09/19 02:05:23;;;;;;;1.00;0.63;;;;;;;18.29;76.42;98368.53;5075724;28;39234;-80
2023/09/19 02:07:51;;;;;;;0.97;0.70;;;;;;;18.35;76.87;98394.69;5074958;28;40904;-80
2023/09/19 02:10:19;;;;;;;1.23;0.70;;;;;;;18.33;76.83;98387.81;5074729;28;42862;-81
2023/09/19 02:12:46;;;;;;;2.37;1.00;;;;;;;18.39;76.44;98392.56;5059144;28;41937;-80
2023/09/19 02:15:15;;;;;;;0.67;0.63;;;;;;;18.43;76.61;98393.91;5076701;28;38839;-80
2023/09/19 02:17:45;;;;;;;1.07;0.80;;;;;;;18.49;77.37;98393.31;5076567;28;40798;-80
2023/09/19 02:20:13;;;;;;;1.87;0.90;;;;;;;18.42;77.93;98374.28;5076470;28;41887;-80
2023/09/19 02:22:42;;;;;;;0.83;0.80;;;;;;;18.58;77.51;98393.22;5075837;28;42243;-80
2023/09/19 02:25:09;;;;;;;0.60;0.60;;;;;;;18.65;77.14;98401.50;5076812;28;39862;-80
2023/09/19 02:27:37;;;;;;;0.83;0.80;;;;;;;18.64;76.90;98399.81;5059655;28;41835;-80
2023/09/19 02:30:06;;;;;;;1.40;0.87;;;;;;;18.72;76.52;98409.75;5093547;28;42867;-80
2023/09/19 02:32:38;;;;;;;1.00;0.83;;;;;;;18.72;76.92;98407.91;5076538;28;40891;-80
2023/09/19 02:35:10;;;;;;;1.23;0.80;;;;;;;18.74;77.00;98408.59;5076879;28;39549;-80
2023/09/19 02:37:38;;;;;;;0.70;0.60;;;;;;;18.73;76.79;98411.44;5076020;28;41704;-80
2023/09/19 02:40:18;;;;;;;0.70;0.70;;;;;;;18.70;77.15;98407.22;5076508;28;41641;-80
2023/09/19 02:42:48;;;;;;;1.90;0.87;;;;;;;18.62;77.05;98405.31;5074396;28;41568;-80
2023/09/19 02:45:18;;;;;;;0.80;0.80;;;;;;;18.67;76.75;98415.56;5074883;28;38889;-80
2023/09/19 02:47:47;;;;;;;1.17;1.07;;;;;;;18.68;77.05;98419.94;5091157;28;41675;-81
2023/09/19 02:50:18;;;;;;;1.27;0.90;;;;;;;18.69;77.39;98421.63;5075418;28;42734;-80
2023/09/19 07:00:18;;;;;;;2.03;1.93;;;;;;;17.10;100.00;98606.94;5170640;27;20563;-78
2023/09/19 07:02:46;;;;;;;3.07;1.90;;;;;;;17.71;100.00;98617.25;5184250;27;39890;-79
2023/09/19 07:05:14;;;;;;;2.80;1.73;;;;;;;18.45;97.04;98628.72;5169473;27;40820;-78
2023/09/19 07:07:41;;;;;;;1.60;1.50;;;;;;;20.06;90.35;98638.25;5170405;27;43105;-79
2023/09/19 07:10:11;;;;;;;2.13;1.60;;;;;;;21.78;80.71;98639.19;5151953;27;41011;-79
2023/09/19 07:12:38;;;;;;;1.50;1.20;;;;;;;23.14;73.19;98667.59;5151914;27;39124;-79
2023/09/19 07:15:07;;;;;;;2.17;1.40;;;;;;;23.95;66.96;98675.03;5171409;27;41666;-80
2023/09/19 07:17:36;;;;;;;1.57;1.10;;;;;;;24.49;64.09;98674.75;5169916;27;43756;-79
2023/09/19 07:20:07;;;;;;;1.77;1.20;;;;;;;24.52;62.76;98682.50;5169585;27;42111;-79
2023/09/19 07:22:36;;;;;;;1.90;1.60;;;;;;;24.40;62.60;98670.47;5170370;27;39836;-79
2023/09/19 07:25:04;;;;;;;2.17;1.73;;;;;;;24.17;60.40;98667.84;5170515;27;43131;-79
2023/09/19 07:27:32;;;;;;;2.17;1.33;;;;;;;24.27;60.52;98679.25;5151915;27;42939;-77
2023/09/19 07:29:59;;;;;;;2.63;1.40;;;;;;;24.31;59.42;98690.56;5170818;27;42413;-79
2023/09/19 07:32:27;;;;;;;1.53;1.40;;;;;;;24.38;59.67;98683.34;5169797;27;40367;-79
2023/09/19 07:34:56;;;;;;;2.10;1.40;;;;;;;24.43;56.75;98702.59;5169599;27;41870;-79
2023/09/19 07:37:25;;;;;;;1.83;1.37;;;;;;;24.28;56.10;98712.56;5169366;27;41737;-79
2023/09/19 07:39:53;;;;;;;1.77;1.30;;;;;;;24.28;56.34;98734.22;5151796;27;41481;-80
2023/09/19 07:42:21;;;;;;;1.70;1.40;;;;;;;24.44;56.01;98733.22;5150395;27;39526;-79
2023/09/19 07:44:50;;;;;;;2.03;1.63;;;;;;;24.55;55.74;98724.63;5169434;27;42560;-80
2023/09/19 07:47:18;;;;;;;2.23;1.50;;;;;;;24.57;53.13;98750.47;5150974;27;41681;-80
2023/09/19 07:49:48;;;;;;;2.23;1.53;;;;;;;24.55;53.20;98757.94;5167894;27;42460;-80
2023/09/19 07:52:17;;;;;;;1.50;1.40;;;;;;;24.57;52.63;98747.78;5169999;27;40190;-79
2023/09/19 07:54:45;;;;;;;2.00;1.37;;;;;;;24.47;52.02;98766.19;5168399;27;42717;-80
2023/09/19 07:57:12;;;;;;;1.70;1.43;;;;;;;24.26;52.59;98769.59;5150820;27;43164;-79
2023/09/19 07:59:41;;;;;;;2.47;1.70;;;;;;;24.20;53.04;98764.91;5150241;27;40975;-77
2023/09/19 08:02:15;;;;;;;2.83;1.50;;;;;;;24.09;54.01;98751.00;5168303;27;39430;-80
2023/09/19 08:04:43;;;;;;;2.23;1.60;;;;;;;23.92;53.12;98761.97;5164757;27;42428;-80
2023/09/19 08:07:11;;;;;;;2.07;1.83;;;;;;;23.79;52.90;98785.22;5168185;27;42729;-80
2023/09/19 08:09:46;;;;;;;1.70;1.37;;;;;;;23.38;53.77;98753.06;5164357;27;41766;-80
2023/09/19 08:12:14;;;;;;;2.90;1.83;;;;;;;23.43;53.85;98783.09;5154073;27;40358;-79
2023/09/19 08:14:42;;;;;;;3.30;1.63;;;;;;;23.19;54.78;98773.28;5137576;27;41505;-79
2023/09/19 08:17:10;;;;;;;2.57;1.30;;;;;;;23.05;55.56;98779.44;5156272;27;42961;-79
2023/09/19 08:19:41;;;;;;;1.87;1.53;;;;;;;23.05;56.13;98775.91;5155748;27;42255;-81
2023/09/19 08:22:12;;;;;;;1.53;1.40;;;;;;;23.12;56.25;98780.41;5151882;27;40834;-79
2023/09/19 08:24:39;;;;;;;2.63;1.70;;;;;;;23.32;55.94;98791.63;5154835;27;40514;-80
2023/09/19 08:27:10;;;;;;;2.90;1.63;;;;;;;23.55;55.72;98791.66;5154340;27;42080;-79
2023/09/19 08:29:38;;;;;;;3.40;1.50;;;;;;;23.70;55.18;98797.97;5135253;27;41332;-80
2023/09/19 08:32:06;;;;;;;1.77;1.50;;;;;;;23.76;53.48;98794.53;5154827;27;41214;-79
2023/09/19 08:34:34;;;;;;;1.63;1.53;;;;;;;24.20;52.81;98807.38;5136364;27;41113;-77
2023/09/19 08:37:01;;;;;;;2.43;1.40;;;;;;;24.46;51.01;98806.97;5154572;27;43024;-80
2023/09/19 08:39:30;;;;;;;1.37;1.27;;;;;;;24.98;50.35;98806.88;5153488;27;42234;-80
2023/09/19 08:41:59;;;;;;;3.53;1.60;;;;;;;25.44;49.21;98833.72;5136078;27;38884;-81
2023/09/19 08:44:31;;;;;;;1.67;1.20;;;;;;;25.57;47.39;98828.47;5150323;27;42408;-80
2023/09/19 08:47:09;;;;;;;2.30;1.30;;;;;;;25.34;46.91;98818.63;5136003;27;42847;-79
2023/09/19 08:49:43;;;;;;;1.37;1.10;;;;;;;25.29;47.53;98834.59;5151095;27;43001;-79
2023/09/19 08:52:20;;;;;;;2.87;1.20;;;;;;;25.05;47.21;98829.50;5136456;27;38875;-79
2023/09/19 08:54:52;;;;;;;1.30;1.20;;;;;;;24.73;47.53;98830.69;5151526;27;42902;-79
2023/09/19 08:57:22;;;;;;;1.70;1.20;;;;;;;24.67;48.39;98820.59;5136386;27;41905;-79
2023/09/19 08:59:52;;;;;;;3.33;1.07;;;;;;;25.02;48.07;98824.44;5169825;27;42720;-80
2023/09/19 09:02:25;;;;;;;2.00;1.43;;;;;;;24.85;47.39;98804.00;5150306;27;40974;-78
2023/09/19 09:04:54;;;;;;;1.93;1.20;;;;;;;24.86;46.66;98824.59;5152753;27;40568;-77
2023/09/19 09:07:22;;;;;;;2.40;1.10;;;;;;;24.85;46.39;98831.09;5154368;27;42783;-78
2023/09/19 09:09:50;;;;;;;2.10;1.40;;;;;;;24.60;46.15;98836.75;5152232;27;41140;-80
2023/09/19 09:12:18;;;;;;;5.37;1.50;;;;;;;24.47;47.39;98825.75;5153380;27;38917;-79
2023/09/19 09:14:50;;;;;;;2.60;1.20;;;;;;;24.55;47.74;98827.50;5136460;27;40688;-79
2023/09/19 09:17:20;;;;;;;2.10;1.30;;;;;;;24.52;47.37;98828.72;5153137;27;41694;-78
2023/09/19 09:19:47;;;;;;;1.63;1.03;;;;;;;24.62;46.96;98826.56;5136305;27;42235;-80
2023/09/19 09:22:16;;;;;;;1.23;1.13;;;;;;;24.54;46.40;98842.91;5152980;27;40334;-80
2023/09/19 09:24:53;;;;;;;3.33;1.40;;;;;;;24.66;45.25;98836.00;5153975;27;40785;-79
2023/09/19 09:27:23;;;;;;;3.50;1.37;;;;;;;25.28;44.31;98840.22;5154152;27;41198;-78
2023/09/19 09:29:54;;;;;;;1.13;1.00;;;;;;;25.65;43.57;98852.78;5153609;27;41322;-78
2023/09/19 09:32:28;;;;;;;1.93;1.13;;;;;;;26.15;42.52;98853.69;5153814;27;40182;-80
2023/09/19 09:35:00;;;;;;;1.30;1.03;;;;;;;26.51;41.85;98869.88;5153416;27;40941;-79
2023/09/19 09:37:30;;;;;;;1.67;1.27;;;;;;;26.63;41.46;98865.59;5153064;27;41948;-79
2023/09/19 09:40:17;;;;;;;1.27;1.10;;;;;;;26.76;41.49;98866.50;5151331;27;42045;-79
2023/09/19 09:42:46;;;;;;;2.17;1.37;;;;;;;26.80;40.45;98875.97;5152678;27;39198;-80
2023/09/19 09:45:16;;;;;;;1.47;1.20;;;;;;;26.94;39.51;98876.06;5151993;27;41810;-78
2023/09/19 09:47:54;;;;;;;1.80;1.30;;;;;;;26.82;38.89;98882.03;5153875;27;43791;-78
2023/09/19 09:50:44;;;;;;;1.90;1.27;;;;;;;27.12;39.46;98884.53;5150879;27;43179;-79
2023/09/19 09:53:25;;;;;;;3.70;1.33;;;;;;;27.63;38.63;98879.56;5150198;27;40107;-78
2023/09/19 09:56:00;;;;;;;1.43;1.30;;;;;;;27.71;38.65;98883.97;5151683;27;42249;-78
2023/09/19 09:58:30;;;;;;;2.27;1.40;;;;;;;27.75;37.72;98901.56;5169174;27;43458;-78
2023/09/19 10:00:58;;;;;;;1.40;1.30;;;;;;;27.83;37.30;98898.66;5153467;27;42523;-78
2023/09/19 10:03:39;;;;;;;2.80;1.50;;;;;;;27.48;36.89;98906.03;5134786;27;39416;-82
2023/09/19 10:06:27;;;;;;;1.30;1.20;;;;;;;27.99;36.62;98906.47;5150563;27;43356;-79
2023/09/19 10:09:10;;;;;;;1.47;1.30;;;;;;;28.63;36.06;98910.53;5134801;27;42048;-79
2023/09/19 10:11:42;;;;;;;2.93;1.40;;;;;;;29.33;35.38;98911.69;5152308;27;43140;-79
2023/09/19 10:14:12;;;;;;;2.20;1.20;;;;;;;30.00;34.87;98903.91;5149662;27;40925;-79
2023/09/19 10:16:46;;;;;;;2.63;1.30;;;;;;;30.73;33.84;98908.84;5152324;27;41026;-79
2023/09/19 10:19:24;;;;;;;1.23;1.03;;;;;;;30.94;32.28;98916.63;5152849;27;41983;-80
2023/09/19 10:21:56;;;;;;;1.77;1.40;;;;;;;31.45;31.73;98918.22;5153874;27;42592;-78
2023/09/19 10:24:24;;;;;;;2.63;1.70;;;;;;;32.27;30.41;98938.66;5150814;27;40813;-78
2023/09/19 10:26:55;;;;;;;1.73;1.53;;;;;;;31.69;30.58;98935.63;5150771;27;42878;-80
2023/09/19 10:29:25;;;;;;;1.40;1.10;;;;;;;32.67;29.85;98932.53;5152701;27;43409;-79
2023/09/19 10:31:54;;;;;;;1.80;1.20;;;;;;;33.72;28.14;98941.63;5151473;27;43012;-79
2023/09/19 10:34:24;;;;;;;1.50;1.40;;;;;;;34.44;26.46;98955.72;5151352;27;40117;-80
2023/09/19 10:36:53;;;;;;;1.30;1.17;;;;;;;34.68;25.52;98961.06;5134192;27;40664;-79
2023/09/19 10:39:21;;;;;;;1.52;1.20;;;;;;;33.97;25.83;98970.72;5151792;27;43529;-78
2023/09/19 10:41:58;;;;;;;1.23;1.13;;;;;;;32.65;26.98;98937.44;5150880;27;41037;-77
2023/09/19 10:44:28;;;;;;;1.20;1.10;;;;;;;32.48;27.95;98924.44;5149288;27;39938;-80
2023/09/19 10:46:56;;;;;;;1.80;1.17;;;;;;;32.65;28.47;98916.31;5133715;27;42467;-78
2023/09/19 10:49:26;;;;;;;2.37;1.47;;;;;;;32.93;28.21;98931.28;5152490;27;43849;-78
2023/09/19 10:51:58;;;;;;;2.67;1.50;;;;;;;33.00;27.84;98938.34;5152062;27;42462;-78
2023/09/19 10:54:36;;;;;;;1.53;1.20;;;;;;;33.11;27.68;98944.91;5149497;27;39747;-79
2023/09/19 10:57:05;;;;;;;3.20;1.67;;;;;;;32.25;28.87;98929.84;5147888;27;42180;-79
2023/09/19 10:59:34;;;;;;;1.30;1.20;;;;;;;31.51;29.83;98911.84;5150526;27;42571;-79
2023/09/19 11:02:18;;;;;;;1.77;1.47;;;;;;;30.66;30.97;98910.81;5147926;27;42466;-79
2023/09/19 11:04:48;;;;;;;1.90;1.20;;;;;;;30.44;31.17;98904.84;5150706;27;40489;-78
2023/09/19 11:07:18;;;;;;;1.67;1.53;;;;;;;30.18;31.59;98905.03;5149358;27;41610;-78
2023/09/19 11:09:47;;;;;;;1.40;1.30;;;;;;;30.39;31.73;98901.09;5150913;27;43114;-79
2023/09/19 11:12:49;;;;;;;2.47;1.60;;;;;;;31.37;30.90;98899.38;5151333;27;42962;-77
2023/09/19 11:15:53;;;;;;;2.60;1.53;;;;;;;31.62;29.49;98915.69;5147578;27;38553;-78
2023/09/19 11:18:53;;;;;;;1.17;1.07;;;;;;;30.96;29.95;98921.88;5120903;27;40675;-78
2023/09/19 11:21:56;;;;;;;1.47;1.20;;;;;;;31.71;29.67;98917.06;5168492;27;43476;-78
2023/09/19 11:24:35;;;;;;;4.47;1.47;;;;;;;31.61;29.65;98897.59;5150138;27;42097;-79
2023/09/19 11:27:17;;;;;;;1.73;1.30;;;;;;;33.30;28.93;98894.28;5149814;27;40982;-79
2023/09/19 11:29:45;;;;;;;1.20;1.10;;;;;;;33.55;27.81;98910.47;5134146;27;41541;-79
2023/09/19 11:32:14;;;;;;;1.63;1.30;;;;;;;33.69;28.59;98898.13;5151470;27;42937;-79
2023/09/19 11:34:41;;;;;;;1.67;1.30;;;;;;;33.19;27.48;98906.94;5133625;27;41523;-79
2023/09/19 11:38:00;;;;;;;1.57;1.30;;;;;;;33.22;27.78;98908.38;5151395;27;40679;-79
2023/09/19 11:40:30;;;;;;;1.40;1.30;;;;;;;32.46;28.24;98898.31;5108257;27;42039;-79
2023/09/19 11:42:59;;;;;;;2.07;1.30;;;;;;;31.78;29.45;98888.53;5150955;27;43368;-77
2023/09/19 11:46:02;;;;;;;1.63;1.53;;;;;;;31.42;29.74;98891.28;5152727;27;42095;-79
2023/09/19 11:48:31;;;;;;;1.40;1.30;;;;;;;30.66;30.57;98880.72;5151026;27;40489;-79
2023/09/19 11:51:02;;;;;;;1.67;1.20;;;;;;;30.86;29.98;98903.25;5136279;27;40556;-79
2023/09/19 11:53:35;;;;;;;1.57;1.23;;;;;;;32.66;28.65;98897.97;5154146;27;43880;-79
2023/09/19 11:56:10;;;;;;;1.47;1.37;;;;;;;33.00;28.38;98908.16;5155173;27;41751;-79
2023/09/19 11:58:39;;;;;;;2.27;1.47;;;;;;;33.08;27.62;98902.31;5151847;27;40086;-79
2023/09/19 12:01:20;;;;;;;2.27;1.70;;;;;;;34.47;25.79;98915.88;5153955;27;42290;-81
2023/09/19 12:03:53;;;;;;;1.30;1.20;;;;;;;34.85;24.65;98921.50;5152059;27;43995;-79
2023/09/19 12:06:21;;;;;;;1.20;1.10;;;;;;;35.92;23.83;98923.00;5135925;27;41566;-79
2023/09/19 12:08:53;;;;;;;1.20;1.10;;;;;;;36.99;21.72;98927.59;5171461;27;39689;-79
2023/09/19 12:11:24;;;;;;;1.50;1.40;;;;;;;37.98;21.13;98930.38;5153686;27;42024;-79
2023/09/19 12:14:00;;;;;;;1.20;1.10;;;;;;;38.98;20.99;98918.91;5152669;27;42694;-79
2023/09/19 12:16:31;;;;;;;1.23;1.02;;;;;;;38.84;20.00;98921.38;5137409;27;40749;-77
2023/09/19 12:18:59;;;;;;;1.08;0.98;;;;;;;38.94;20.72;98887.34;5154465;27;39920;-80
2023/09/19 12:21:31;;;;;;;1.00;1.00;;;;;;;39.68;20.19;98897.69;5153832;27;40900;-78
2023/09/19 12:24:06;;;;;;;3.83;1.05;;;;;;;39.67;19.64;98918.19;5137649;27;41694;-79
2023/09/19 12:26:47;;;;;;;1.13;0.90;;;;;;;38.90;20.31;98897.28;5136583;27;41048;-79
2023/09/19 12:29:17;;;;;;;1.58;1.10;;;;;;;37.25;21.37;98888.03;5155074;27;39562;-79
2023/09/19 12:31:54;;;;;;;2.33;1.30;;;;;;;36.64;22.55;98872.94;5155622;27;44747;-78
2023/09/19 12:34:27;;;;;;;0.90;0.90;;;;;;;37.34;22.26;98875.38;5152152;27;43768;-81
2023/09/19 12:37:11;;;;;;;1.80;1.00;;;;;;;38.38;22.01;98867.94;5154248;27;42126;-79
2023/09/19 12:39:41;;;;;;;3.17;1.25;;;;;;;38.91;21.12;98885.13;5150243;27;39817;-79
2023/09/19 12:42:14;;;;;;;2.20;1.40;;;;;;;39.41;20.81;98867.53;5135885;27;41918;-81
2023/09/19 12:44:44;;;;;;;1.00;1.00;;;;;;;40.11;19.79;98890.50;5135593;27;43337;-79
2023/09/19 12:47:15;;;;;;;3.45;1.10;;;;;;;40.32;19.26;98885.69;5135864;27;41421;-79
2023/09/19 12:50:17;;;;;;;2.33;1.30;;;;;;;39.70;19.74;98882.41;5152873;27;38956;-78
2023/09/19 12:52:47;;;;;;;1.30;1.15;;;;;;;39.02;20.43;98881.25;5135928;27;42190;-78
2023/09/19 12:55:25;;;;;;;1.77;1.33;;;;;;;37.42;21.15;98878.72;5152668;27;42106;-77
2023/09/19 12:58:05;;;;;;;1.63;1.30;;;;;;;37.30;21.36;98870.66;5151191;27;43126;-78
2023/09/19 13:00:37;;;;;;;1.88;1.10;;;;;;;36.98;21.53;98848.63;5153108;27;39334;-77
2023/09/19 13:03:19;;;;;;;2.92;1.23;;;;;;;36.95;21.85;98854.72;5153486;27;40759;-80
2023/09/19 13:05:51;;;;;;;2.35;1.25;;;;;;;36.02;22.49;98848.66;5151569;27;43742;-80
2023/09/19 13:08:21;;;;;;;1.63;1.10;;;;;;;35.57;23.07;98836.03;5149652;27;42159;-79
2023/09/19 13:11:13;;;;;;;1.00;0.90;;;;;;;35.70;23.35;98847.75;5152799;27;39117;-79
2023/09/19 13:13:46;;;;;;;1.07;1.07;;;;;;;36.52;23.46;98845.53;5153176;27;42027;-78
2023/09/19 13:16:19;;;;;;;1.83;1.30;;;;;;;36.99;22.41;98840.09;5136310;27;41787;-78
2023/09/19 13:18:50;;;;;;;1.23;1.03;;;;;;;37.31;21.77;98856.59;5153753;27;41196;-78
2023/09/19 13:21:27;;;;;;;1.10;1.00;;;;;;;37.21;20.96;98867.59;5152748;27;40688;-79
2023/09/19 13:23:59;;;;;;;1.30;1.20;;;;;;;37.04;21.55;98858.63;5150556;27;42758;-79
2023/09/19 13:26:27;;;;;;;1.73;1.20;;;;;;;36.98;21.98;98852.22;5153030;27;43508;-79
2023/09/19 13:28:56;;;;;;;1.17;1.05;;;;;;;37.12;21.28;98848.97;5136678;27;42128;-78
2023/09/19 13:31:25;;;;;;;1.20;1.10;;;;;;;37.29;20.96;98857.94;5154839;27;40867;-80
2023/09/19 13:33:52;;;;;;;2.13;1.15;;;;;;;37.26;21.36;98851.03;5155325;27;42298;-79
2023/09/19 13:36:20;;;;;;;1.27;0.90;;;;;;;36.83;21.56;98854.06;5152960;27;41499;-80
2023/09/19 13:38:49;;;;;;;2.20;1.40;;;;;;;36.38;22.50;98843.50;5154722;27;43188;-79
2023/09/19 13:41:17;;;;;;;1.53;1.27;;;;;;;36.49;22.72;98846.06;5135350;27;40102;-79
2023/09/19 13:43:48;;;;;;;1.00;1.00;;;;;;;36.07;22.70;98847.88;5152160;27;41897;-78
2023/09/19 13:46:17;;;;;;;1.53;1.17;;;;;;;35.93;23.14;98837.28;5152561;27;42065;-79
2023/09/19 13:48:45;;;;;;;1.03;0.97;;;;;;;36.11;22.73;98837.97;5154031;27;42331;-79
2023/09/19 13:51:12;;;;;;;1.20;1.10;;;;;;;36.06;23.18;98833.25;5152273;27;40522;-79
2023/09/19 13:53:40;;;;;;;2.17;1.25;;;;;;;35.91;23.01;98816.56;5153666;27;41928;-79
2023/09/19 13:56:08;;;;;;;2.10;1.00;;;;;;;35.95;22.72;98828.75;5135075;27;41461;-80
2023/09/19 13:58:35;;;;;;;1.40;0.90;;;;;;;35.87;22.59;98831.97;5153297;27;43056;-79
2023/09/19 14:01:03;;;;;;;1.73;1.27;;;;;;;35.57;22.21;98832.44;5152457;27;39915;-79
2023/09/19 14:03:32;;;;;;;1.40;1.30;;;;;;;35.37;22.64;98834.94;5152124;27;42693;-78
2023/09/19 14:06:00;;;;;;;1.47;1.17;;;;;;;35.25;23.31;98826.78;5151636;27;43583;-78
2023/09/19 14:08:27;;;;;;;1.30;1.20;;;;;;;35.02;22.72;98830.63;5134106;27;42116;-78
2023/09/19 14:10:55;;;;;;;1.13;1.03;;;;;;;34.83;23.22;98821.00;5153459;27;40020;-79
2023/09/19 14:13:22;;;;;;;1.40;1.20;;;;;;;34.62;23.69;98806.06;5152630;27;42848;-78
2023/09/19 14:15:50;;;;;;;1.63;1.23;;;;;;;34.39;23.60;98831.84;5152677;27;42558;-79
2023/09/19 14:18:18;;;;;;;1.80;1.27;;;;;;;34.07;23.71;98817.00;5135564;27;42274;-78
2023/09/19 14:20:47;;;;;;;2.00;1.10;;;;;;;33.73;24.48;98813.34;5152611;27;40679;-80
2023/09/19 14:23:15;;;;;;;2.53;1.50;;;;;;;33.23;24.97;98793.91;5152556;27;42864;-79
2023/09/19 14:25:43;;;;;;;0.90;0.90;;;;;;;32.70;25.65;98811.41;5152536;27;42995;-79
2023/09/19 14:28:10;;;;;;;1.53;1.40;;;;;;;32.00;26.18;98792.97;5133815;27;41312;-79
2023/09/19 14:30:38;;;;;;;2.63;1.20;;;;;;;31.18;26.85;98766.34;5152169;27;40027;-79
2023/09/19 14:33:07;;;;;;;1.50;1.17;;;;;;;30.79;28.16;98782.13;5134627;27;41556;-79
2023/09/19 14:35:37;;;;;;;2.57;1.13;;;;;;;30.34;28.40;98765.13;5151379;27;43081;-79
2023/09/19 14:38:06;;;;;;;2.37;1.30;;;;;;;29.86;28.72;98749.34;5134874;27;41218;-79
2023/09/19 14:40:36;;;;;;;1.20;1.10;;;;;;;29.73;29.68;98765.00;5151916;27;40271;-79
2023/09/19 14:43:03;;;;;;;1.60;1.10;;;;;;;29.52;29.79;98758.84;5152150;27;42838;-80
2023/09/19 14:45:31;;;;;;;4.13;1.37;;;;;;;29.35;30.04;98754.91;5146955;27;43989;-82
2023/09/19 14:47:58;;;;;;;1.40;1.20;;;;;;;29.24;30.34;98744.69;5153843;27;42214;-80
2023/09/19 14:50:26;;;;;;;1.77;1.10;;;;;;;29.07;30.42;98749.81;5134011;27;38948;-81
2023/09/19 14:52:54;;;;;;;1.20;0.90;;;;;;;28.81;30.69;98748.03;5134728;27;41320;-81
2023/09/19 14:55:23;;;;;;;2.03;1.13;;;;;;;28.47;31.02;98748.31;5151311;27;42625;-80
2023/09/19 14:57:51;;;;;;;2.13;1.10;;;;;;;28.06;31.29;98733.06;5151934;27;43082;-81
2023/09/19 15:00:21;;;;;;;2.73;1.20;;;;;;;27.85;32.46;98744.16;5151281;27;39915;-80
2023/09/19 15:02:49;;;;;;;1.20;1.10;;;;;;;27.59;32.84;98735.97;5151491;27;43813;-79
2023/09/19 15:05:17;;;;;;;1.20;1.00;;;;;;;27.27;33.42;98723.97;5152400;27;42881;-80
2023/09/19 15:07:45;;;;;;;2.17;1.40;;;;;;;27.08;33.20;98717.41;5151808;27;42119;-85
2023/09/19 15:10:13;;;;;;;2.13;1.00;;;;;;;27.03;33.71;98717.22;5134497;27;38891;-85
2023/09/19 15:12:42;;;;;;;1.30;0.90;;;;;;;26.78;34.21;98717.72;5151659;27;40683;-86
2023/09/19 15:15:10;;;;;;;2.10;0.93;;;;;;;26.49;34.13;98704.41;5135432;27;42790;-84
2023/09/19 15:17:37;;;;;;;1.77;1.10;;;;;;;26.45;34.75;98719.44;5152287;27;41203;-77
2023/09/19 15:20:07;;;;;;;0.80;0.67;;;;;;;26.10;34.42;98677.81;5152845;27;40140;-81
2023/09/19 15:22:35;;;;;;;1.53;1.27;;;;;;;26.06;35.18;98717.28;5155882;27;40717;-83
2023/09/19 15:25:03;;;;;;;1.87;1.07;;;;;;;25.71;35.43;98664.84;5177283;27;42097;-84
2023/09/19 15:27:32;;;;;;;1.37;1.13;;;;;;;25.85;35.34;98703.72;5129183;27;42518;-80
2023/09/19 15:30:02;;;;;;;1.17;0.70;;;;;;;25.78;35.90;98706.41;5135287;27;40336;-82
2023/09/19 15:32:30;;;;;;;2.70;1.10;;;;;;;25.70;36.05;98709.28;5117985;27;40554;-77
2023/09/19 15:34:58;;;;;;;1.40;1.10;;;;;;;25.61;36.48;98694.16;5134364;27;42369;-77
2023/09/19 15:37:25;;;;;;;1.10;0.80;;;;;;;25.57;36.35;98703.69;5145989;27;41287;-83
2023/09/19 15:39:54;;;;;;;1.40;1.13;;;;;;;25.46;36.53;98699.66;5138506;27;38427;-81
2023/09/19 15:42:22;;;;;;;0.60;0.60;;;;;;;25.19;36.68;98682.28;5154338;27;40393;-86
2023/09/19 15:44:51;;;;;;;1.33;1.10;;;;;;;25.04;37.17;98673.34;5143229;27;42757;-80
2023/09/19 15:47:20;;;;;;;1.40;1.03;;;;;;;25.04;37.60;98681.50;5145571;27;41152;-81
2023/09/19 15:49:49;;;;;;;0.80;0.80;;;;;;;24.92;37.58;98685.69;5156340;27;38934;-81
2023/09/19 15:52:18;;;;;;;1.77;1.00;;;;;;;24.77;38.02;98671.34;5156166;27;42659;-84
2023/09/19 15:54:46;;;;;;;1.30;1.20;;;;;;;24.73;38.49;98675.50;5137025;27;42278;-81
2023/09/19 15:57:14;;;;;;;0.80;0.63;;;;;;;24.69;38.52;98672.31;5154414;27;43315;-83
2023/09/19 15:59:41;;;;;;;0.87;0.83;;;;;;;24.56;38.68;98673.00;5136744;27;38788;-81
2023/09/19 16:02:09;;;;;;;2.50;0.90;;;;;;;24.42;39.22;98660.31;5136499;27;40756;-77